createdAt,value
2018-09-10T00:00:08.485Z,3.40
2018-09-10T00:02:36.162Z,3.87
2018-09-10T00:05:04.002Z,3.97
2018-09-10T00:07:31.724Z,3.33
2018-09-10T00:09:59.402Z,3.90
2018-09-10T00:12:27.170Z,3.60
2018-09-10T00:14:54.890Z,4.07
2018-09-10T00:17:22.556Z,4.00
2018-09-10T00:19:50.218Z,3.60
2018-09-10T00:22:17.936Z,3.37
2018-09-10T00:24:45.608Z,3.80
2018-09-10T00:27:13.276Z,3.60
2018-09-10T00:29:41.009Z,3.90
2018-09-10T00:32:08.672Z,4.00
2018-09-10T00:34:36.335Z,4.50
2018-09-10T00:37:04.082Z,3.80
2018-09-10T00:39:31.738Z,3.53
2018-09-10T00:41:59.398Z,3.53
2018-09-10T00:44:27.082Z,3.47
2018-09-10T00:46:54.801Z,3.60
2018-09-10T00:49:22.465Z,3.23
2018-09-10T00:51:50.180Z,3.53
2018-09-10T00:54:17.843Z,3.80
2018-09-10T00:56:45.521Z,3.53
2018-09-10T00:59:13.237Z,4.07
2018-09-10T01:01:40.902Z,3.60
2018-09-10T01:04:08.573Z,4.27
2018-09-10T01:06:36.297Z,3.63
2018-09-10T01:09:06.377Z,4.23
2018-09-10T01:11:34.070Z,3.40
2018-09-10T01:14:01.865Z,4.47
2018-09-10T01:16:29.569Z,4.20
2018-09-10T01:18:57.250Z,4.03
2018-09-10T01:21:24.957Z,3.83
2018-09-10T01:23:52.633Z,3.70
2018-09-10T01:26:20.319Z,3.20
2018-09-10T01:28:47.997Z,3.50
2018-09-10T01:31:15.678Z,3.30
2018-09-10T01:33:48.761Z,3.90
2018-09-10T01:36:16.478Z,4.10
2018-09-10T01:38:44.145Z,3.90
2018-09-10T01:41:11.843Z,3.40
2018-09-10T01:43:39.517Z,4.23
2018-09-10T01:46:07.193Z,3.77
2018-09-10T01:48:34.902Z,3.67
2018-09-10T01:51:02.581Z,3.57
2018-09-10T01:53:30.260Z,3.73
2018-09-10T01:55:58.129Z,3.67
2018-09-10T01:58:25.790Z,3.73
2018-09-10T02:00:53.482Z,3.60
2018-09-10T02:03:21.207Z,4.07
2018-09-10T02:05:48.877Z,3.87
2018-09-10T02:08:16.537Z,3.77
2018-09-10T02:10:44.216Z,3.77
2018-09-10T02:13:11.889Z,3.80
2018-09-10T02:15:45.323Z,3.80
2018-09-10T02:18:13.006Z,3.60
2018-09-10T02:20:40.697Z,3.47
2018-09-10T02:23:08.401Z,4.20
2018-09-10T02:25:36.077Z,3.67
2018-09-10T02:28:03.826Z,3.67
2018-09-10T02:30:31.706Z,3.43
2018-09-10T02:32:59.422Z,3.53
2018-09-10T02:35:27.119Z,3.43
2018-09-10T02:37:54.825Z,3.70
2018-09-10T02:40:22.498Z,3.33
2018-09-10T02:42:50.236Z,3.70
2018-09-10T02:45:17.958Z,3.23
2018-09-10T02:47:45.610Z,3.53
2018-09-10T02:50:13.303Z,3.70
2018-09-10T02:52:41.021Z,3.30
2018-09-10T02:55:08.718Z,3.40
2018-09-10T02:57:36.397Z,3.67
2018-09-10T03:00:04.476Z,3.30
2018-09-10T03:02:32.158Z,3.57
2018-09-10T03:04:59.821Z,3.70
2018-09-10T03:07:27.562Z,3.33
2018-09-10T03:09:55.246Z,3.50
2018-09-10T03:12:22.994Z,3.17
2018-09-10T03:14:50.711Z,3.23
2018-09-10T03:17:18.446Z,3.63
2018-09-10T03:19:46.139Z,3.57
2018-09-10T03:22:13.842Z,3.40
2018-09-10T03:24:41.530Z,3.57
2018-09-10T03:27:09.197Z,3.47
2018-09-10T03:29:36.895Z,3.37
2018-09-10T03:32:04.602Z,3.40
2018-09-10T03:34:32.277Z,3.77
2018-09-10T03:36:59.979Z,3.77
2018-09-10T03:39:27.678Z,3.77
2018-09-10T03:41:55.358Z,3.53
2018-09-10T03:44:23.068Z,3.30
2018-09-10T03:46:50.745Z,3.70
2018-09-10T03:49:18.401Z,3.40
2018-09-10T03:51:46.121Z,3.60
2018-09-10T03:54:13.769Z,3.40
2018-09-10T03:56:41.442Z,3.93
2018-09-10T03:59:09.165Z,3.47
2018-09-10T04:01:36.870Z,3.70
2018-09-10T04:04:04.564Z,3.83
2018-09-10T04:06:32.285Z,3.43
2018-09-10T04:08:59.961Z,3.60
2018-09-10T04:11:27.699Z,3.90
2018-09-10T04:13:55.387Z,3.40
2018-09-10T04:16:23.042Z,3.90
2018-09-10T04:18:50.906Z,3.93
2018-09-10T04:21:18.718Z,3.57
2018-09-10T04:23:46.389Z,3.57
2018-09-10T04:26:14.042Z,4.03
2018-09-10T04:28:41.750Z,3.80
2018-09-10T04:31:09.418Z,3.90
2018-09-10T04:33:37.174Z,4.07
2018-09-10T04:36:04.962Z,4.23
2018-09-10T04:38:32.652Z,3.97
2018-09-10T04:41:00.313Z,3.80
2018-09-10T04:43:28.021Z,3.73
2018-09-10T04:45:55.694Z,4.17
2018-09-10T04:48:23.383Z,4.10
2018-09-10T04:50:51.093Z,4.63
2018-09-10T04:53:18.814Z,3.73
2018-09-10T04:55:46.470Z,4.37
2018-09-10T04:58:14.363Z,4.20
2018-09-10T05:00:41.964Z,4.30
2018-09-10T05:03:09.682Z,4.27
2018-09-10T05:05:37.398Z,4.50
2018-09-10T05:08:05.080Z,4.53
2018-09-10T05:10:32.068Z,5.17
2018-09-10T05:12:59.786Z,4.23
2018-09-10T05:15:27.441Z,4.33
2018-09-10T05:17:55.171Z,4.37
2018-09-10T05:20:23.011Z,5.30
2018-09-10T05:22:50.714Z,4.80
2018-09-10T05:25:25.033Z,4.60
2018-09-10T05:27:52.751Z,4.27
2018-09-10T05:30:20.514Z,4.63
2018-09-10T05:32:48.399Z,4.90
2018-09-10T05:35:16.235Z,3.93
2018-09-10T05:37:43.936Z,4.10
2018-09-10T05:40:11.723Z,4.07
2018-09-10T05:42:39.542Z,5.63
2018-09-10T05:45:09.682Z,5.40
2018-09-10T05:47:37.473Z,12.90
2018-09-10T05:50:05.220Z,6.03
2018-09-10T05:52:32.924Z,5.80
2018-09-10T05:55:00.647Z,4.60
2018-09-10T05:57:28.342Z,4.63
2018-09-10T05:59:56.027Z,4.93
2018-09-10T06:02:23.734Z,5.00
2018-09-10T06:04:51.410Z,4.73
2018-09-10T06:07:19.110Z,4.50
2018-09-10T06:09:46.862Z,4.27
2018-09-10T06:12:14.536Z,4.17
2018-09-10T06:14:42.250Z,4.37
2018-09-10T06:17:09.950Z,4.30
2018-09-10T06:19:37.619Z,4.57
2018-09-10T06:22:05.560Z,4.57
2018-09-10T06:24:33.320Z,5.33
2018-09-10T06:27:01.007Z,5.07
2018-09-10T06:29:28.752Z,5.10
2018-09-10T06:31:57.543Z,4.90
2018-09-10T06:34:25.293Z,5.10
2018-09-10T06:36:53.025Z,4.90
2018-09-10T06:39:20.725Z,4.37
2018-09-10T06:41:48.412Z,4.77
2018-09-10T06:44:16.085Z,4.30
2018-09-10T06:46:43.803Z,4.20
2018-09-10T06:49:11.485Z,4.23
2018-09-10T06:51:39.259Z,4.90
2018-09-10T06:54:07.138Z,5.00
2018-09-10T06:56:34.992Z,4.60
2018-09-10T06:59:02.890Z,4.73
2018-09-10T07:01:30.695Z,4.60
2018-09-10T07:03:58.425Z,4.70
2018-09-10T07:06:26.262Z,4.50
2018-09-10T07:08:54.015Z,4.40
2018-09-10T07:11:21.734Z,5.03
2018-09-10T07:13:49.510Z,5.03
2018-09-10T07:16:17.654Z,5.30
2018-09-10T07:18:45.596Z,4.73
2018-09-10T07:21:14.142Z,4.23
2018-09-10T07:23:41.925Z,5.10
2018-09-10T07:26:09.586Z,4.33
2018-09-10T07:28:37.274Z,5.00
2018-09-10T07:31:05.074Z,5.07
2018-09-10T07:33:32.754Z,4.37
2018-09-10T07:36:01.453Z,4.70
2018-09-10T07:38:29.180Z,4.30
2018-09-10T07:40:56.957Z,4.57
2018-09-10T07:43:24.768Z,4.23
2018-09-10T07:45:52.639Z,4.13
2018-09-10T07:48:20.370Z,4.30
2018-09-10T07:50:48.087Z,5.30
2018-09-10T07:53:15.810Z,4.40
2018-09-10T07:55:43.519Z,4.93
2018-09-10T07:58:11.264Z,4.40
2018-09-10T08:00:39.061Z,4.57
2018-09-10T08:03:06.888Z,4.40
2018-09-10T08:05:34.491Z,4.23
2018-09-10T08:08:02.221Z,4.20
2018-09-10T08:10:29.941Z,4.40
2018-09-10T08:12:57.655Z,4.50
2018-09-10T08:15:25.431Z,5.27
2018-09-10T08:17:53.151Z,4.00
2018-09-10T08:20:20.909Z,4.53
2018-09-10T08:22:48.657Z,4.70
2018-09-10T08:25:16.456Z,4.00
2018-09-10T08:27:44.161Z,4.43
2018-09-10T08:30:11.882Z,3.90
2018-09-10T08:32:39.894Z,4.40
2018-09-10T08:35:07.715Z,4.13
2018-09-10T08:37:35.595Z,4.53
2018-09-10T08:40:03.390Z,3.43
2018-09-10T08:42:31.100Z,4.60
2018-09-10T08:44:59.387Z,4.00
2018-09-10T08:47:27.046Z,4.00
2018-09-10T08:49:54.923Z,4.47
2018-09-10T08:52:22.671Z,4.03
2018-09-10T08:54:50.621Z,4.27
2018-09-10T08:57:18.092Z,4.10
2018-09-10T08:59:45.941Z,4.03
2018-09-10T09:02:13.631Z,3.90
2018-09-10T09:04:41.323Z,3.80
2018-09-10T09:07:09.034Z,4.00
2018-09-10T09:09:37.508Z,4.30
2018-09-10T09:12:05.190Z,3.83
2018-09-10T09:14:32.895Z,3.93
2018-09-10T09:17:00.581Z,4.13
2018-09-10T09:19:28.369Z,4.47
2018-09-10T09:21:56.174Z,4.10
2018-09-10T09:24:23.902Z,3.70
2018-09-10T09:26:51.805Z,4.50
2018-09-10T09:29:19.647Z,4.10
2018-09-10T09:31:47.485Z,3.80
2018-09-10T09:34:15.259Z,3.67
2018-09-10T09:36:48.444Z,4.50
2018-09-10T09:39:21.756Z,3.63
2018-09-10T09:41:54.994Z,3.57
2018-09-10T09:44:28.110Z,4.20
2018-09-10T09:46:56.041Z,4.07
2018-09-10T09:49:23.731Z,3.77
2018-09-10T09:51:51.511Z,4.93
2018-09-10T09:54:19.285Z,4.10
2018-09-10T09:56:47.096Z,3.70
2018-09-10T09:59:14.780Z,3.63
2018-09-10T10:01:46.379Z,3.30
2018-09-10T10:04:14.197Z,4.07
2018-09-10T10:06:41.881Z,3.40
2018-09-10T10:09:11.591Z,3.70
2018-09-10T10:11:39.835Z,3.40
2018-09-10T10:14:08.013Z,3.77
2018-09-10T10:16:36.085Z,3.40
2018-09-10T10:19:03.847Z,3.43
2018-09-10T10:21:31.584Z,3.10
2018-09-10T10:23:59.387Z,3.20
2018-09-10T10:26:27.087Z,3.50
2018-09-10T10:28:54.846Z,3.90
2018-09-10T10:31:22.571Z,3.30
2018-09-10T10:33:50.261Z,2.90
2018-09-10T10:36:17.959Z,3.37
2018-09-10T10:38:45.711Z,3.57
2018-09-10T10:41:13.407Z,3.37
2018-09-10T10:43:41.127Z,3.30
2018-09-10T10:46:08.843Z,3.03
2018-09-10T10:48:36.544Z,2.77
2018-09-10T10:51:04.343Z,2.70
2018-09-10T10:53:32.135Z,2.80
2018-09-10T10:55:59.869Z,3.50
2018-09-10T10:58:27.588Z,2.77
2018-09-10T11:00:55.341Z,3.20
2018-09-10T11:03:23.103Z,2.97
2018-09-10T11:05:50.805Z,3.60
2018-09-10T11:08:18.493Z,3.93
2018-09-10T11:10:46.187Z,3.40
2018-09-10T11:13:13.900Z,3.43
2018-09-10T11:15:41.894Z,3.10
2018-09-10T11:18:09.605Z,3.07
2018-09-10T11:20:37.319Z,3.13
2018-09-10T11:23:05.062Z,3.27
2018-09-10T11:25:32.787Z,3.43
2018-09-10T11:28:00.839Z,3.03
2018-09-10T11:30:28.686Z,3.03
2018-09-10T11:32:56.561Z,3.00
2018-09-10T11:35:24.356Z,3.27
2018-09-10T11:37:52.159Z,3.17
2018-09-10T11:40:19.864Z,3.60
2018-09-10T11:42:47.544Z,3.33
2018-09-10T11:45:15.252Z,3.57
2018-09-10T11:47:42.937Z,3.37
2018-09-10T11:50:10.652Z,3.33
2018-09-10T11:52:38.413Z,3.40
2018-09-10T11:55:06.185Z,3.50
2018-09-10T11:57:33.867Z,3.50
2018-09-10T12:00:01.638Z,3.63
2018-09-10T12:02:29.292Z,3.83
2018-09-10T12:04:57.011Z,3.63
2018-09-10T12:07:24.708Z,3.43
2018-09-10T12:09:52.380Z,3.90
2018-09-10T12:12:20.088Z,3.27
2018-09-10T12:14:47.847Z,3.40
2018-09-10T12:17:15.560Z,3.50
2018-09-10T12:19:43.439Z,3.70
2018-09-10T12:22:11.207Z,3.23
2018-09-10T12:24:38.917Z,3.40
2018-09-10T12:27:06.784Z,3.50
2018-09-10T12:29:34.527Z,3.13
2018-09-10T12:32:02.590Z,3.40
2018-09-10T12:34:30.291Z,3.43
2018-09-10T12:36:58.081Z,3.00
2018-09-10T12:39:26.050Z,3.20
2018-09-10T12:41:53.794Z,3.33
2018-09-10T12:44:21.570Z,3.43
2018-09-10T12:46:49.278Z,3.50
2018-09-10T12:49:16.998Z,3.50
2018-09-10T12:51:44.809Z,2.83
2018-09-10T12:54:12.553Z,3.57
2018-09-10T12:56:40.367Z,3.30
2018-09-10T12:59:08.189Z,3.60
2018-09-10T13:01:35.965Z,3.43
2018-09-10T13:04:03.752Z,3.60
2018-09-10T13:06:31.518Z,3.03
2018-09-10T13:08:59.234Z,3.43
2018-09-10T13:11:27.002Z,3.30
2018-09-10T13:13:54.724Z,3.07
2018-09-10T13:16:22.484Z,3.30
2018-09-10T13:18:50.246Z,3.20
2018-09-10T13:21:17.973Z,3.03
2018-09-10T13:23:45.709Z,3.10
2018-09-10T13:26:13.479Z,3.20
2018-09-10T13:28:41.265Z,3.17
2018-09-10T13:31:08.965Z,3.63
2018-09-10T13:33:36.745Z,3.27
2018-09-10T13:36:04.442Z,3.37
2018-09-10T13:38:32.182Z,3.77
2018-09-10T13:40:59.892Z,3.10
2018-09-10T13:43:27.612Z,3.30
2018-09-10T13:45:55.497Z,3.30
2018-09-10T13:48:23.247Z,3.20
2018-09-10T13:50:50.983Z,3.60
2018-09-10T13:53:18.708Z,3.07
2018-09-10T13:55:46.405Z,3.33
2018-09-10T13:58:14.213Z,3.20
2018-09-10T14:00:41.913Z,3.30
2018-09-10T14:03:09.657Z,3.00
2018-09-10T14:05:37.419Z,3.13
2018-09-10T14:08:05.167Z,3.30
2018-09-10T14:10:32.972Z,3.00
2018-09-10T14:13:00.732Z,2.80
2018-09-10T14:15:28.613Z,3.33
2018-09-10T14:17:56.387Z,3.20
2018-09-10T14:20:24.205Z,3.27
2018-09-10T14:22:52.314Z,3.00
2018-09-10T14:25:20.374Z,3.57
2018-09-10T14:27:48.594Z,3.20
2018-09-10T14:30:16.348Z,2.93
2018-09-10T14:32:44.127Z,3.17
2018-09-10T14:35:12.056Z,3.30
2018-09-10T14:37:40.030Z,3.50
2018-09-10T14:40:07.818Z,2.70
2018-09-10T14:42:35.615Z,3.70
2018-09-10T14:45:03.429Z,3.30
2018-09-10T14:47:31.134Z,3.30
2018-09-10T14:49:58.896Z,3.50
2018-09-10T14:52:26.697Z,3.80
2018-09-10T14:54:54.401Z,3.17
2018-09-10T14:57:22.213Z,3.17
2018-09-10T14:59:49.930Z,2.80
2018-09-10T15:02:17.651Z,4.03
2018-09-10T15:04:45.401Z,2.93
2018-09-10T15:07:13.139Z,3.63
2018-09-10T15:09:40.901Z,3.63
2018-09-10T15:12:08.774Z,3.63
2018-09-10T15:14:36.581Z,3.30
2018-09-10T15:17:04.330Z,3.53
2018-09-10T15:19:32.141Z,3.70
2018-09-10T15:22:00.074Z,3.37
2018-09-10T15:24:27.839Z,3.73
2018-09-10T15:26:56.195Z,3.10
2018-09-10T15:29:23.925Z,3.40
2018-09-10T15:31:52.796Z,3.57
2018-09-10T15:34:20.576Z,3.10
2018-09-10T15:36:48.418Z,3.47
2018-09-10T15:39:16.152Z,3.53
2018-09-10T15:41:43.882Z,3.13
2018-09-10T15:44:11.674Z,3.50
2018-09-10T15:46:39.409Z,3.20
2018-09-10T15:49:07.250Z,3.30
2018-09-10T15:51:34.917Z,3.67
2018-09-10T15:54:02.644Z,3.30
2018-09-10T15:56:30.409Z,3.70
2018-09-10T15:58:58.274Z,3.67
2018-09-10T16:01:25.980Z,3.90
2018-09-10T16:03:53.771Z,3.30
2018-09-10T16:06:21.477Z,3.83
2018-09-10T16:08:49.497Z,3.40
2018-09-10T16:11:17.203Z,3.50
2018-09-10T16:13:44.957Z,3.23
2018-09-10T16:16:12.688Z,3.33
2018-09-10T16:18:40.429Z,3.27
2018-09-10T16:21:08.146Z,3.00
2018-09-10T16:23:35.890Z,3.93
2018-09-10T16:26:03.678Z,3.53
2018-09-10T16:28:31.351Z,4.07
2018-09-10T16:30:59.046Z,4.30
2018-09-10T16:33:26.808Z,4.00
2018-09-10T16:35:54.519Z,3.63
2018-09-10T16:38:22.284Z,3.20
2018-09-10T16:40:50.010Z,4.20
2018-09-10T16:43:17.729Z,3.50
2018-09-10T16:45:45.461Z,4.30
2018-09-10T16:48:13.290Z,4.17
2018-09-10T16:50:41.006Z,3.73
2018-09-10T16:53:08.697Z,3.67
2018-09-10T16:55:36.455Z,4.60
2018-09-10T16:58:04.150Z,4.27
2018-09-10T17:00:31.941Z,4.30
2018-09-10T17:02:59.630Z,3.77
2018-09-10T17:05:27.388Z,3.97
2018-09-10T17:07:55.097Z,3.87
2018-09-10T17:10:22.818Z,3.77
2018-09-10T17:12:50.563Z,3.90
2018-09-10T17:15:18.334Z,4.40
2018-09-10T17:17:46.065Z,3.90
2018-09-10T17:20:13.749Z,3.80
2018-09-10T17:22:48.209Z,3.80
2018-09-10T17:25:15.918Z,3.57
2018-09-10T17:27:43.690Z,3.27
2018-09-10T17:30:11.759Z,3.73
2018-09-10T17:32:39.598Z,4.30
2018-09-10T17:35:07.287Z,4.23
2018-09-10T17:37:35.114Z,3.60
2018-09-10T17:40:03.054Z,4.00
2018-09-10T17:42:30.885Z,4.40
2018-09-10T17:44:58.657Z,4.37
2018-09-10T17:47:26.447Z,3.70
2018-09-10T17:49:54.255Z,3.87
2018-09-10T17:52:22.827Z,3.90
2018-09-10T17:54:50.535Z,3.90
2018-09-10T17:57:18.529Z,4.20
2018-09-10T17:59:46.309Z,4.40
2018-09-10T18:02:14.059Z,5.00
2018-09-10T18:04:41.844Z,5.00
2018-09-10T18:07:09.582Z,4.73
2018-09-10T18:09:37.358Z,4.63
2018-09-10T18:12:05.249Z,4.00
2018-09-10T18:14:33.026Z,3.87
2018-09-10T18:17:00.790Z,4.20
2018-09-10T18:19:28.538Z,3.93
2018-09-10T18:21:56.481Z,3.77
2018-09-10T18:24:24.242Z,3.80
2018-09-10T18:26:51.948Z,3.70
2018-09-10T18:29:19.745Z,3.50
2018-09-10T18:31:47.461Z,3.70
2018-09-10T18:34:15.217Z,3.47
2018-09-10T18:36:43.359Z,3.47
2018-09-10T18:39:11.969Z,3.50
2018-09-10T18:41:39.751Z,3.40
2018-09-10T18:44:07.609Z,3.33
2018-09-10T18:46:35.322Z,3.40
2018-09-10T18:49:03.054Z,3.50
2018-09-10T18:51:30.887Z,3.10
2018-09-10T18:53:58.606Z,4.00
2018-09-10T18:56:26.337Z,3.23
2018-09-10T18:58:54.075Z,3.37
2018-09-10T19:01:22.017Z,3.30
2018-09-10T19:03:50.515Z,3.40
2018-09-10T19:06:18.324Z,3.40
2018-09-10T19:08:46.078Z,3.03
2018-09-10T19:11:13.862Z,3.60
2018-09-10T19:13:41.599Z,3.13
2018-09-10T19:16:09.324Z,3.03
2018-09-10T19:18:38.907Z,3.07
2018-09-10T19:21:07.313Z,3.30
2018-09-10T19:23:35.857Z,2.90
2018-09-10T19:26:03.849Z,3.33
2018-09-10T19:28:31.639Z,3.83
2018-09-10T19:30:59.521Z,3.07
2018-09-10T19:33:27.304Z,3.10
2018-09-10T19:35:55.322Z,2.73
2018-09-10T19:38:23.149Z,3.40
2018-09-10T19:40:50.900Z,2.67
2018-09-10T19:43:18.850Z,2.93
2018-09-10T19:45:46.636Z,2.97
2018-09-10T19:48:14.405Z,2.70
2018-09-10T19:50:42.229Z,3.30
2018-09-10T19:53:10.303Z,3.37
2018-09-10T19:55:38.102Z,2.80
2018-09-10T19:58:05.978Z,3.83
2018-09-10T20:00:33.721Z,2.87
2018-09-10T20:03:01.613Z,2.70
2018-09-10T20:05:29.406Z,2.73
2018-09-10T20:07:57.111Z,2.90
2018-09-10T20:10:24.813Z,2.90
2018-09-10T20:12:53.037Z,2.70
2018-09-10T20:15:20.840Z,2.60
2018-09-10T20:17:48.614Z,2.60
2018-09-10T20:20:16.410Z,2.47
2018-09-10T20:22:44.186Z,3.20
2018-09-10T20:25:11.971Z,2.87
2018-09-10T20:27:39.781Z,3.03
2018-09-10T20:30:07.655Z,3.00
2018-09-10T20:32:35.377Z,3.40
2018-09-10T20:35:03.577Z,3.47
2018-09-10T20:37:31.518Z,3.43
2018-09-10T20:40:00.098Z,4.03
2018-09-10T20:42:27.918Z,3.87
2018-09-10T20:44:55.625Z,3.87
2018-09-10T20:47:23.345Z,4.90
2018-09-10T20:49:51.162Z,4.60
2018-09-10T20:52:19.077Z,6.30
2018-09-10T20:54:46.669Z,5.27
2018-09-10T20:57:14.369Z,5.40
2018-09-10T20:59:42.080Z,5.77
2018-09-10T21:02:09.778Z,5.50
2018-09-10T21:04:37.580Z,5.70
2018-09-10T21:07:05.405Z,5.57
2018-09-10T21:09:33.048Z,5.37
2018-09-10T21:12:00.813Z,5.10
2018-09-10T21:14:28.529Z,5.00
2018-09-10T21:16:56.253Z,5.50
2018-09-10T21:19:23.968Z,4.93
2018-09-10T21:21:51.682Z,5.07
2018-09-10T21:24:19.416Z,4.83
2018-09-10T21:26:47.220Z,5.07
2018-09-10T21:29:14.922Z,5.30
2018-09-10T21:31:42.606Z,4.40
2018-09-10T21:34:10.326Z,5.00
2018-09-10T21:36:38.031Z,4.73
2018-09-10T21:39:07.295Z,3.43
2018-09-10T21:41:35.014Z,3.50
2018-09-10T21:44:02.745Z,3.70
2018-09-10T21:46:30.458Z,4.10
2018-09-10T21:48:58.199Z,3.07
2018-09-10T21:51:25.922Z,3.30
2018-09-10T21:53:53.636Z,2.90
2018-09-10T21:56:21.329Z,2.62
2018-09-10T21:58:48.978Z,3.00
2018-09-10T22:01:16.733Z,3.13
2018-09-10T22:03:44.511Z,3.00
2018-09-10T22:06:12.225Z,3.50
2018-09-10T22:08:39.984Z,3.30
2018-09-10T22:11:07.958Z,3.13
2018-09-10T22:13:35.706Z,3.77
2018-09-10T22:16:03.457Z,3.27
2018-09-10T22:18:31.206Z,3.27
2018-09-10T22:20:58.870Z,3.60
2018-09-10T22:23:26.614Z,3.50
2018-09-10T22:25:54.327Z,3.27
2018-09-10T22:28:22.015Z,3.03
2018-09-10T22:30:49.855Z,3.40
2018-09-10T22:33:17.570Z,2.97
2018-09-10T22:35:45.266Z,3.53
2018-09-10T22:38:12.904Z,4.00
2018-09-10T22:40:40.610Z,3.60
2018-09-10T22:43:08.296Z,4.07
2018-09-10T22:45:36.010Z,3.80
2018-09-10T22:48:03.721Z,3.57
2018-09-10T22:50:31.401Z,3.80
2018-09-10T22:52:59.125Z,3.83
2018-09-10T22:55:26.831Z,3.50
2018-09-10T22:57:54.500Z,3.27
2018-09-10T23:00:22.224Z,3.77
2018-09-10T23:02:50.298Z,3.40
2018-09-10T23:05:17.981Z,4.03
2018-09-10T23:07:45.648Z,3.43
2018-09-10T23:10:13.388Z,3.20
2018-09-10T23:12:41.076Z,3.27
2018-09-10T23:15:08.862Z,3.50
2018-09-10T23:17:36.566Z,3.40
2018-09-10T23:20:04.643Z,3.07
2018-09-10T23:22:32.309Z,3.40
2018-09-10T23:25:00.010Z,2.77
2018-09-10T23:27:27.700Z,3.37
2018-09-10T23:29:55.371Z,3.27
2018-09-10T23:32:23.136Z,3.60
2018-09-10T23:34:50.797Z,3.00
2018-09-10T23:39:51.929Z,3.00
2018-09-10T23:42:19.595Z,2.90
2018-09-10T23:44:47.264Z,3.17
2018-09-10T23:47:15.005Z,3.10
2018-09-10T23:49:42.671Z,3.80
2018-09-10T23:52:10.345Z,2.77
2018-09-10T23:54:38.057Z,3.13
2018-09-10T23:57:05.793Z,3.63
2018-09-10T23:59:33.482Z,3.30
